createdAt,value
2022-11-05T00:03:40.773Z,9.35
2022-11-05T00:09:02.480Z,9.27
2022-11-05T00:14:22.837Z,9.19
2022-11-05T00:19:25.658Z,9.12
2022-11-05T00:24:47.349Z,9.04
2022-11-05T00:29:50.099Z,8.97
2022-11-05T00:34:52.844Z,8.92
2022-11-05T00:39:56.933Z,8.90
2022-11-05T00:45:02.532Z,8.82
2022-11-05T00:50:06.112Z,8.74
2022-11-05T00:55:10.223Z,8.68
2022-11-05T01:00:14.297Z,8.58
2022-11-05T01:05:17.234Z,8.51
2022-11-05T01:10:22.274Z,8.42
2022-11-05T01:15:25.095Z,8.34
2022-11-05T01:20:28.002Z,8.26
2022-11-05T01:25:32.123Z,8.18
2022-11-05T01:30:34.851Z,8.13
2022-11-05T01:35:37.569Z,8.06
2022-11-05T01:40:44.030Z,8.00
2022-11-05T01:45:50.614Z,7.92
2022-11-05T01:50:58.422Z,7.88
2022-11-05T01:56:28.992Z,7.83
2022-11-05T02:01:33.161Z,7.79
2022-11-05T02:06:42.616Z,7.73
2022-11-05T02:11:48.229Z,7.68
2022-11-05T02:16:57.737Z,7.63
2022-11-05T02:22:22.638Z,7.60
2022-11-05T02:27:50.160Z,7.51
2022-11-05T02:33:04.906Z,7.43
2022-11-05T02:38:10.073Z,7.39
2022-11-05T02:43:16.869Z,7.32
2022-11-05T02:48:27.503Z,7.22
2022-11-05T02:53:39.933Z,7.15
2022-11-05T02:58:43.032Z,7.10
2022-11-05T03:03:49.217Z,7.05
2022-11-05T03:09:30.407Z,7.03
2022-11-05T03:14:41.461Z,6.96
2022-11-05T03:19:50.559Z,6.88
2022-11-05T03:24:59.343Z,6.84
2022-11-05T03:30:06.336Z,6.81
2022-11-05T03:35:16.170Z,6.75
2022-11-05T03:40:23.696Z,6.69
2022-11-05T03:45:31.084Z,6.62
2022-11-05T03:50:41.728Z,6.54
2022-11-05T03:55:52.053Z,6.50
2022-11-05T04:00:55.385Z,6.44
2022-11-05T04:06:17.378Z,6.37
2022-11-05T04:11:37.604Z,6.26
2022-11-05T04:16:58.027Z,6.17
2022-11-05T04:22:19.795Z,6.07
2022-11-05T04:27:22.977Z,6.03
2022-11-05T04:32:25.827Z,5.96
2022-11-05T04:37:30.325Z,5.88
2022-11-05T04:42:33.216Z,5.80
2022-11-05T04:47:36.135Z,5.75
2022-11-05T04:52:40.821Z,5.76
2022-11-05T04:57:43.985Z,5.77
2022-11-05T05:02:47.308Z,5.78
2022-11-05T05:07:51.617Z,5.76
2022-11-05T05:12:54.578Z,5.76
2022-11-05T05:17:57.508Z,5.79
2022-11-05T05:23:01.840Z,5.80
2022-11-05T05:28:04.795Z,5.82
2022-11-05T05:33:07.699Z,5.77
2022-11-05T05:38:23.055Z,5.77
2022-11-05T05:43:26.257Z,5.77
2022-11-05T05:48:29.359Z,5.75
2022-11-05T05:53:34.335Z,5.72
2022-11-05T05:58:39.617Z,5.73
2022-11-05T06:03:42.852Z,5.76
2022-11-05T06:08:48.384Z,5.80
2022-11-05T06:13:54.759Z,5.80
2022-11-05T06:18:57.647Z,5.81
2022-11-05T06:24:05.896Z,5.82
2022-11-05T06:29:09.253Z,5.84
2022-11-05T06:34:12.145Z,5.87
2022-11-05T06:39:16.431Z,5.85
2022-11-05T06:44:21.402Z,5.86
2022-11-05T06:49:25.791Z,5.89
2022-11-05T06:54:30.345Z,5.92
2022-11-05T06:59:33.631Z,5.94
2022-11-05T07:04:40.288Z,5.98
2022-11-05T07:10:31.635Z,6.06
2022-11-05T07:15:36.162Z,6.11
2022-11-05T07:20:39.101Z,6.16
2022-11-05T07:25:43.802Z,6.20
2022-11-05T07:30:49.411Z,6.24
2022-11-05T07:35:52.671Z,6.27
2022-11-05T07:40:55.710Z,6.36
2022-11-05T07:46:00.408Z,6.45
2022-11-05T07:51:03.347Z,6.55
2022-11-05T07:56:07.092Z,6.65
2022-11-05T08:01:11.621Z,6.79
2022-11-05T08:06:14.855Z,6.95
2022-11-05T08:11:18.962Z,7.09
2022-11-05T08:16:23.012Z,7.22
2022-11-05T08:21:25.751Z,7.40
2022-11-05T08:26:28.454Z,7.57
2022-11-05T08:31:32.727Z,7.75
2022-11-05T08:36:36.212Z,7.91
2022-11-05T08:41:40.400Z,8.10
2022-11-05T08:46:44.685Z,8.26
2022-11-05T08:51:47.600Z,8.42
2022-11-05T08:56:50.348Z,8.55
2022-11-05T09:01:54.542Z,8.69
2022-11-05T09:06:57.268Z,8.88
2022-11-05T09:12:12.709Z,9.08
2022-11-05T09:17:19.763Z,9.22
2022-11-05T09:22:22.551Z,9.32
2022-11-05T09:27:25.439Z,9.51
2022-11-05T09:32:29.512Z,9.72
2022-11-05T09:37:32.239Z,9.86
2022-11-05T09:42:40.394Z,10.02
2022-11-05T09:47:49.755Z,10.16
2022-11-05T09:52:52.585Z,10.28
2022-11-05T09:57:58.679Z,10.41
2022-11-05T10:03:07.833Z,10.56
2022-11-05T10:08:17.326Z,10.65
2022-11-05T10:13:26.437Z,10.70
2022-11-05T10:18:34.247Z,10.73
2022-11-05T10:23:37.652Z,10.77
2022-11-05T10:28:40.401Z,10.86
2022-11-05T10:33:46.902Z,10.94
2022-11-05T10:38:49.923Z,10.99
2022-11-05T10:44:01.640Z,10.99
2022-11-05T10:49:29.079Z,11.03
2022-11-05T10:54:35.980Z,11.07
2022-11-05T10:59:38.714Z,11.05
2022-11-05T11:04:43.029Z,11.07
2022-11-05T11:09:49.686Z,11.10
2022-11-05T11:15:02.343Z,11.16
2022-11-05T11:20:22.087Z,11.23
2022-11-05T11:25:27.114Z,11.27
2022-11-05T11:30:30.083Z,11.34
2022-11-05T11:35:38.660Z,11.42
2022-11-05T11:40:41.879Z,11.50
2022-11-05T11:45:50.231Z,11.58
2022-11-05T11:50:54.766Z,11.68
2022-11-05T11:56:03.999Z,11.77
2022-11-05T12:01:21.009Z,11.83
2022-11-05T12:06:34.391Z,11.92
2022-11-05T12:11:42.854Z,12.03
2022-11-05T12:17:08.468Z,12.09
2022-11-05T12:22:24.464Z,12.14
2022-11-05T12:27:39.355Z,12.26
2022-11-05T12:33:18.574Z,12.34
2022-11-05T12:38:31.999Z,12.43
2022-11-05T12:43:45.514Z,12.51
2022-11-05T12:49:07.913Z,12.58
2022-11-05T12:54:22.778Z,12.62
2022-11-05T12:59:32.499Z,12.61
2022-11-05T13:04:42.198Z,12.58
2022-11-05T13:09:53.784Z,12.57
2022-11-05T13:15:00.858Z,12.57
2022-11-05T13:20:17.388Z,12.66
2022-11-05T13:25:25.244Z,12.68
2022-11-05T13:30:32.603Z,12.68
2022-11-05T13:35:42.702Z,12.64
2022-11-05T13:40:59.646Z,12.61
2022-11-05T13:46:19.385Z,12.59
2022-11-05T13:51:38.919Z,12.60
2022-11-05T13:57:01.479Z,12.54
2022-11-05T14:02:07.203Z,12.47
2022-11-05T14:07:12.784Z,12.42
2022-11-05T14:12:22.345Z,12.35
2022-11-05T14:17:33.275Z,12.26
2022-11-05T14:22:42.577Z,12.24
2022-11-05T14:27:49.210Z,12.16
2022-11-05T14:32:53.136Z,12.02
2022-11-05T14:37:57.582Z,11.92
2022-11-05T14:43:04.484Z,11.84
2022-11-05T14:48:24.512Z,11.74
2022-11-05T14:53:32.809Z,11.67
2022-11-05T14:58:38.751Z,11.56
2022-11-05T15:04:04.365Z,11.47
2022-11-05T15:09:24.007Z,11.39
2022-11-05T15:14:34.569Z,11.23
2022-11-05T15:19:39.968Z,11.07
2022-11-05T15:24:43.787Z,10.87
2022-11-05T15:29:47.974Z,10.73
2022-11-05T15:34:55.008Z,10.62
2022-11-05T15:39:57.764Z,10.54
2022-11-05T15:45:01.967Z,10.42
2022-11-05T15:50:14.769Z,10.26
2022-11-05T15:55:24.409Z,10.13
2022-11-05T16:00:31.435Z,10.01
2022-11-05T16:05:42.858Z,9.93
2022-11-05T16:10:48.963Z,9.84
2022-11-05T16:15:57.632Z,9.80
2022-11-05T16:21:04.750Z,9.73
2022-11-05T16:27:01.302Z,9.68
2022-11-05T16:32:01.009Z,9.59
2022-11-05T16:37:06.162Z,9.53
2022-11-05T16:42:37.312Z,9.46
2022-11-05T16:47:42.454Z,9.34
2022-11-05T16:52:46.450Z,9.26
2022-11-05T16:57:52.554Z,9.19
2022-11-05T17:02:56.779Z,9.13
2022-11-05T17:08:01.167Z,9.09
2022-11-05T17:13:03.933Z,9.02
2022-11-05T17:18:08.049Z,8.95
2022-11-05T17:23:12.237Z,8.88
2022-11-05T17:28:16.470Z,8.81
2022-11-05T17:33:21.530Z,8.76
2022-11-05T17:38:26.093Z,8.68
2022-11-05T17:43:28.849Z,8.59
2022-11-05T17:48:32.896Z,8.54
2022-11-05T17:53:35.627Z,8.50
2022-11-05T17:58:38.867Z,8.47
2022-11-05T18:03:42.947Z,8.46
2022-11-05T18:08:45.696Z,8.47
2022-11-05T18:13:48.539Z,8.47
2022-11-05T18:18:52.649Z,8.43
2022-11-05T18:23:55.402Z,8.38
2022-11-05T18:28:58.319Z,8.31
2022-11-05T18:34:02.584Z,8.25
2022-11-05T18:39:06.681Z,8.20
2022-11-05T18:44:09.777Z,8.12
2022-11-05T18:49:13.878Z,8.09
2022-11-05T18:54:16.651Z,8.04
2022-11-05T18:59:38.775Z,7.98
2022-11-05T19:05:06.720Z,7.94
2022-11-05T19:10:09.067Z,7.95
2022-11-05T19:15:12.245Z,7.92
2022-11-05T19:20:17.146Z,7.89
2022-11-05T19:25:20.305Z,7.84
2022-11-05T19:30:23.032Z,7.79
2022-11-05T19:35:27.182Z,7.75
2022-11-05T19:40:30.159Z,7.72
2022-11-05T19:45:48.306Z,7.67
2022-11-05T19:50:52.411Z,7.65
2022-11-05T19:55:55.406Z,7.66
2022-11-05T20:00:58.442Z,7.67
2022-11-05T20:06:08.167Z,7.63
2022-11-05T20:11:11.021Z,7.60
2022-11-05T20:16:22.159Z,7.59
2022-11-05T20:21:26.658Z,7.58
2022-11-05T20:26:29.930Z,7.62
2022-11-05T20:31:33.003Z,7.64
2022-11-05T20:36:37.631Z,7.65
2022-11-05T20:41:40.389Z,7.66
2022-11-05T20:46:43.345Z,7.65
2022-11-05T20:51:47.396Z,7.63
2022-11-05T20:56:50.205Z,7.63
2022-11-05T21:01:53.258Z,7.63
2022-11-05T21:06:57.484Z,7.62
2022-11-05T21:12:12.077Z,7.67
2022-11-05T21:17:14.934Z,7.68
2022-11-05T21:22:19.025Z,7.68
2022-11-05T21:27:21.763Z,7.70
2022-11-05T21:32:24.501Z,7.74
2022-11-05T21:37:28.643Z,7.78
2022-11-05T21:42:31.399Z,7.80
2022-11-05T21:47:34.217Z,7.81
2022-11-05T21:52:55.799Z,7.82
2022-11-05T21:58:19.703Z,7.85
2022-11-05T22:03:22.510Z,7.83
2022-11-05T22:08:27.221Z,7.79
2022-11-05T22:13:29.936Z,7.79
2022-11-05T22:18:32.661Z,7.78
2022-11-05T22:23:36.796Z,7.75
2022-11-05T22:28:39.623Z,7.75
2022-11-05T22:33:42.364Z,7.79
2022-11-05T22:38:46.501Z,7.80
2022-11-05T22:43:50.290Z,7.80
2022-11-05T22:48:53.985Z,7.81
2022-11-05T22:53:58.339Z,7.80
2022-11-05T22:59:01.208Z,7.79
2022-11-05T23:04:04.036Z,7.83
2022-11-05T23:09:32.564Z,7.83
2022-11-05T23:14:36.103Z,7.81
2022-11-05T23:19:56.229Z,7.76
2022-11-05T23:25:00.716Z,7.74
2022-11-05T23:30:06.729Z,7.75
2022-11-05T23:35:10.077Z,7.76
2022-11-05T23:40:17.285Z,7.74
2022-11-05T23:45:36.921Z,7.69
2022-11-05T23:50:40.491Z,7.68
2022-11-05T23:55:45.033Z,7.63
